sensor_id;sensor_type;location;lat;lon;timestamp;temperature;humidity
69208;SHT31;56321;47.662;8.878;2023-03-23T00:01:22;11.91;60.35
69208;SHT31;56321;47.662;8.878;2023-03-23T00:03:50;11.87;60.47
69208;SHT31;56321;47.662;8.878;2023-03-23T00:06:20;11.84;60.63
69208;SHT31;56321;47.662;8.878;2023-03-23T00:08:50;11.83;60.89
69208;SHT31;56321;47.662;8.878;2023-03-23T00:11:23;11.79;60.78
69208;SHT31;56321;47.662;8.878;2023-03-23T00:13:50;11.80;60.75
69208;SHT31;56321;47.662;8.878;2023-03-23T00:16:23;11.77;60.91
69208;SHT31;56321;47.662;8.878;2023-03-23T00:18:57;11.81;61.05
69208;SHT31;56321;47.662;8.878;2023-03-23T00:21:24;11.81;61.07
69208;SHT31;56321;47.662;8.878;2023-03-23T00:23:50;11.84;61.08
69208;SHT31;56321;47.662;8.878;2023-03-23T00:26:16;11.88;61.18
69208;SHT31;56321;47.662;8.878;2023-03-23T00:28:41;11.90;61.12
69208;SHT31;56321;47.662;8.878;2023-03-23T00:31:09;11.93;61.29
69208;SHT31;56321;47.662;8.878;2023-03-23T00:33:36;11.94;61.15
69208;SHT31;56321;47.662;8.878;2023-03-23T00:36:10;11.95;61.16
69208;SHT31;56321;47.662;8.878;2023-03-23T00:38:37;11.97;61.10
69208;SHT31;56321;47.662;8.878;2023-03-23T00:41:03;12.00;61.03
69208;SHT31;56321;47.662;8.878;2023-03-23T00:43:30;11.98;61.00
69208;SHT31;56321;47.662;8.878;2023-03-23T00:45:57;11.94;61.12
69208;SHT31;56321;47.662;8.878;2023-03-23T00:48:27;11.91;61.18
69208;SHT31;56321;47.662;8.878;2023-03-23T00:50:52;11.87;61.25
69208;SHT31;56321;47.662;8.878;2023-03-23T00:53:18;11.84;61.28
69208;SHT31;56321;47.662;8.878;2023-03-23T00:55:45;11.80;61.49
69208;SHT31;56321;47.662;8.878;2023-03-23T00:58:12;11.81;61.64
69208;SHT31;56321;47.662;8.878;2023-03-23T01:00:38;11.79;61.76
69208;SHT31;56321;47.662;8.878;2023-03-23T01:03:03;11.76;61.81
69208;SHT31;56321;47.662;8.878;2023-03-23T01:05:33;11.76;61.86
69208;SHT31;56321;47.662;8.878;2023-03-23T01:07:59;11.79;62.02
69208;SHT31;56321;47.662;8.878;2023-03-23T01:10:24;11.80;62.04
69208;SHT31;56321;47.662;8.878;2023-03-23T01:12:52;11.80;62.04
69208;SHT31;56321;47.662;8.878;2023-03-23T01:15:18;11.80;62.10
69208;SHT31;56321;47.662;8.878;2023-03-23T01:17:44;11.79;62.18
69208;SHT31;56321;47.662;8.878;2023-03-23T01:20:12;11.83;62.29
69208;SHT31;56321;47.662;8.878;2023-03-23T01:22:38;11.81;62.37
69208;SHT31;56321;47.662;8.878;2023-03-23T01:25:05;11.81;62.30
69208;SHT31;56321;47.662;8.878;2023-03-23T01:27:30;11.80;62.40
69208;SHT31;56321;47.662;8.878;2023-03-23T01:29:56;11.80;62.41
69208;SHT31;56321;47.662;8.878;2023-03-23T01:32:21;11.88;62.42
69208;SHT31;56321;47.662;8.878;2023-03-23T01:34:46;11.88;62.70
69208;SHT31;56321;47.662;8.878;2023-03-23T01:37:11;11.88;62.75
69208;SHT31;56321;47.662;8.878;2023-03-23T01:39:37;11.94;62.88
69208;SHT31;56321;47.662;8.878;2023-03-23T01:42:03;11.98;62.86
69208;SHT31;56321;47.662;8.878;2023-03-23T01:46:57;12.01;62.69
69208;SHT31;56321;47.662;8.878;2023-03-23T01:49:29;12.02;63.00
69208;SHT31;56321;47.662;8.878;2023-03-23T01:51:59;12.02;62.89
69208;SHT31;56321;47.662;8.878;2023-03-23T01:54:26;12.05;62.89
69208;SHT31;56321;47.662;8.878;2023-03-23T01:56:59;12.05;63.00
69208;SHT31;56321;47.662;8.878;2023-03-23T01:59:29;12.05;62.88
69208;SHT31;56321;47.662;8.878;2023-03-23T02:01:55;12.05;62.97
69208;SHT31;56321;47.662;8.878;2023-03-23T02:04:23;12.04;62.99
69208;SHT31;56321;47.662;8.878;2023-03-23T02:06:50;12.04;62.84
69208;SHT31;56321;47.662;8.878;2023-03-23T02:09:16;12.04;62.97
69208;SHT31;56321;47.662;8.878;2023-03-23T02:11:43;12.04;63.04
69208;SHT31;56321;47.662;8.878;2023-03-23T02:14:09;12.02;63.10
69208;SHT31;56321;47.662;8.878;2023-03-23T02:16:45;12.01;63.28
69208;SHT31;56321;47.662;8.878;2023-03-23T02:33:50;11.91;63.52
69208;SHT31;56321;47.662;8.878;2023-03-23T02:36:38;11.93;63.27
69208;SHT31;56321;47.662;8.878;2023-03-23T02:39:09;11.95;63.16
69208;SHT31;56321;47.662;8.878;2023-03-23T02:41:58;11.94;63.31
69208;SHT31;56321;47.662;8.878;2023-03-23T02:44:26;11.97;62.96
69208;SHT31;56321;47.662;8.878;2023-03-23T02:46:56;11.97;63.15
69208;SHT31;56321;47.662;8.878;2023-03-23T02:49:24;11.98;63.06
69208;SHT31;56321;47.662;8.878;2023-03-23T02:51:51;12.01;63.07
69208;SHT31;56321;47.662;8.878;2023-03-23T02:54:18;12.02;63.06
69208;SHT31;56321;47.662;8.878;2023-03-23T02:56:45;12.00;63.18
69208;SHT31;56321;47.662;8.878;2023-03-23T02:59:11;11.98;63.22
69208;SHT31;56321;47.662;8.878;2023-03-23T03:04:10;11.95;63.36
69208;SHT31;56321;47.662;8.878;2023-03-23T03:06:54;11.91;63.77
69208;SHT31;56321;47.662;8.878;2023-03-23T03:15:08;11.86;63.67
69208;SHT31;56321;47.662;8.878;2023-03-23T03:17:40;11.88;63.74
69208;SHT31;56321;47.662;8.878;2023-03-23T03:20:09;11.90;63.90
69208;SHT31;56321;47.662;8.878;2023-03-23T03:22:38;11.94;64.08
69208;SHT31;56321;47.662;8.878;2023-03-23T03:25:07;11.97;63.98
69208;SHT31;56321;47.662;8.878;2023-03-23T03:27:33;12.01;64.03
69208;SHT31;56321;47.662;8.878;2023-03-23T03:30:02;12.05;63.96
69208;SHT31;56321;47.662;8.878;2023-03-23T03:32:34;12.11;63.87
69208;SHT31;56321;47.662;8.878;2023-03-23T03:35:02;12.17;63.78
69208;SHT31;56321;47.662;8.878;2023-03-23T03:37:33;12.20;63.52
69208;SHT31;56321;47.662;8.878;2023-03-23T03:39:59;12.21;63.21
69208;SHT31;56321;47.662;8.878;2023-03-23T03:42:25;12.18;63.06
69208;SHT31;56321;47.662;8.878;2023-03-23T03:44:51;12.17;63.12
69208;SHT31;56321;47.662;8.878;2023-03-23T03:47:16;12.17;63.18
69208;SHT31;56321;47.662;8.878;2023-03-23T03:49:41;12.22;63.31
69208;SHT31;56321;47.662;8.878;2023-03-23T03:52:07;12.27;63.14
69208;SHT31;56321;47.662;8.878;2023-03-23T03:54:32;12.29;62.96
69208;SHT31;56321;47.662;8.878;2023-03-23T03:56:57;12.28;62.97
69208;SHT31;56321;47.662;8.878;2023-03-23T03:59:23;12.32;62.80
69208;SHT31;56321;47.662;8.878;2023-03-23T04:01:49;12.39;62.70
69208;SHT31;56321;47.662;8.878;2023-03-23T04:04:19;12.41;62.42
69208;SHT31;56321;47.662;8.878;2023-03-23T04:06:44;12.44;62.27
69208;SHT31;56321;47.662;8.878;2023-03-23T04:09:10;12.48;61.92
69208;SHT31;56321;47.662;8.878;2023-03-23T04:11:35;12.50;61.49
69208;SHT31;56321;47.662;8.878;2023-03-23T04:14:01;12.56;61.22
69208;SHT31;56321;47.662;8.878;2023-03-23T04:16:27;12.63;61.11
69208;SHT31;56321;47.662;8.878;2023-03-23T04:18:54;12.72;61.01
69208;SHT31;56321;47.662;8.878;2023-03-23T04:21:21;12.73;60.65
69208;SHT31;56321;47.662;8.878;2023-03-23T04:23:46;12.77;60.61
69208;SHT31;56321;47.662;8.878;2023-03-23T04:26:11;12.80;60.63
69208;SHT31;56321;47.662;8.878;2023-03-23T04:28:38;12.83;60.41
69208;SHT31;56321;47.662;8.878;2023-03-23T04:31:04;12.83;59.89
69208;SHT31;56321;47.662;8.878;2023-03-23T04:33:29;12.83;60.16
69208;SHT31;56321;47.662;8.878;2023-03-23T04:35:57;12.87;60.11
69208;SHT31;56321;47.662;8.878;2023-03-23T04:38:26;12.89;60.10
69208;SHT31;56321;47.662;8.878;2023-03-23T04:40:52;12.89;60.16
69208;SHT31;56321;47.662;8.878;2023-03-23T04:43:20;12.90;60.30
69208;SHT31;56321;47.662;8.878;2023-03-23T04:45:56;12.84;60.52
69208;SHT31;56321;47.662;8.878;2023-03-23T04:48:26;12.82;60.66
69208;SHT31;56321;47.662;8.878;2023-03-23T04:50:52;12.79;60.78
69208;SHT31;56321;47.662;8.878;2023-03-23T04:53:18;12.75;60.91
69208;SHT31;56321;47.662;8.878;2023-03-23T04:55:44;12.67;61.05
69208;SHT31;56321;47.662;8.878;2023-03-23T04:58:10;12.63;61.30
69208;SHT31;56321;47.662;8.878;2023-03-23T05:00:37;12.56;61.46
69208;SHT31;56321;47.662;8.878;2023-03-23T05:03:03;12.50;61.65
69208;SHT31;56321;47.662;8.878;2023-03-23T05:05:28;12.44;61.77
69208;SHT31;56321;47.662;8.878;2023-03-23T05:07:57;12.36;62.02
69208;SHT31;56321;47.662;8.878;2023-03-23T05:10:23;12.31;62.21
69208;SHT31;56321;47.662;8.878;2023-03-23T05:12:48;12.27;62.32
69208;SHT31;56321;47.662;8.878;2023-03-23T05:15:15;12.24;62.47
69208;SHT31;56321;47.662;8.878;2023-03-23T05:17:41;12.21;62.58
69208;SHT31;56321;47.662;8.878;2023-03-23T05:20:11;12.17;62.75
69208;SHT31;56321;47.662;8.878;2023-03-23T05:22:37;12.14;62.86
69208;SHT31;56321;47.662;8.878;2023-03-23T05:25:04;12.11;62.97
69208;SHT31;56321;47.662;8.878;2023-03-23T05:27:30;12.10;63.11
69208;SHT31;56321;47.662;8.878;2023-03-23T05:29:56;12.08;63.13
69208;SHT31;56321;47.662;8.878;2023-03-23T05:32:24;12.08;63.21
69208;SHT31;56321;47.662;8.878;2023-03-23T05:34:57;12.05;63.27
69208;SHT31;56321;47.662;8.878;2023-03-23T05:37:23;12.08;63.46
69208;SHT31;56321;47.662;8.878;2023-03-23T05:39:48;12.05;63.75
69208;SHT31;56321;47.662;8.878;2023-03-23T05:42:18;12.01;63.76
69208;SHT31;56321;47.662;8.878;2023-03-23T05:44:44;12.02;63.80
69208;SHT31;56321;47.662;8.878;2023-03-23T05:47:10;12.04;63.68
69208;SHT31;56321;47.662;8.878;2023-03-23T05:49:35;12.01;63.80
69208;SHT31;56321;47.662;8.878;2023-03-23T05:52:01;12.02;63.98
69208;SHT31;56321;47.662;8.878;2023-03-23T05:54:26;12.02;63.97
69208;SHT31;56321;47.662;8.878;2023-03-23T05:56:52;12.07;63.91
69208;SHT31;56321;47.662;8.878;2023-03-23T05:59:18;12.13;64.04
69208;SHT31;56321;47.662;8.878;2023-03-23T06:01:43;12.17;63.98
69208;SHT31;56321;47.662;8.878;2023-03-23T06:04:09;12.18;63.69
69208;SHT31;56321;47.662;8.878;2023-03-23T06:06:37;12.24;63.42
69208;SHT31;56321;47.662;8.878;2023-03-23T06:09:02;12.28;63.42
69208;SHT31;56321;47.662;8.878;2023-03-23T06:11:28;12.34;63.35
69208;SHT31;56321;47.662;8.878;2023-03-23T06:13:53;12.34;63.07
69208;SHT31;56321;47.662;8.878;2023-03-23T06:16:19;12.36;63.29
69208;SHT31;56321;47.662;8.878;2023-03-23T06:18:45;12.42;63.42
69208;SHT31;56321;47.662;8.878;2023-03-23T06:21:12;12.44;63.55
69208;SHT31;56321;47.662;8.878;2023-03-23T06:23:38;12.45;63.51
69208;SHT31;56321;47.662;8.878;2023-03-23T06:26:06;12.48;63.58
69208;SHT31;56321;47.662;8.878;2023-03-23T06:28:32;12.48;63.57
69208;SHT31;56321;47.662;8.878;2023-03-23T06:31:00;12.48;63.83
69208;SHT31;56321;47.662;8.878;2023-03-23T06:33:25;12.49;63.72
69208;SHT31;56321;47.662;8.878;2023-03-23T06:35:50;12.50;63.80
69208;SHT31;56321;47.662;8.878;2023-03-23T06:38:16;12.55;63.76
69208;SHT31;56321;47.662;8.878;2023-03-23T06:40:42;12.60;63.74
69208;SHT31;56321;47.662;8.878;2023-03-23T06:43:11;12.67;63.47
69208;SHT31;56321;47.662;8.878;2023-03-23T06:45:36;12.73;63.64
69208;SHT31;56321;47.662;8.878;2023-03-23T06:48:02;12.82;63.77
69208;SHT31;56321;47.662;8.878;2023-03-23T06:50:27;12.87;63.81
69208;SHT31;56321;47.662;8.878;2023-03-23T06:52:53;12.99;63.78
69208;SHT31;56321;47.662;8.878;2023-03-23T06:55:18;13.03;63.68
69208;SHT31;56321;47.662;8.878;2023-03-23T06:57:44;13.11;63.67
69208;SHT31;56321;47.662;8.878;2023-03-23T07:00:11;13.15;63.51
69208;SHT31;56321;47.662;8.878;2023-03-23T07:02:39;13.20;63.49
69208;SHT31;56321;47.662;8.878;2023-03-23T07:05:06;13.24;63.49
69208;SHT31;56321;47.662;8.878;2023-03-23T07:07:32;13.34;63.42
69208;SHT31;56321;47.662;8.878;2023-03-23T07:09:58;13.44;63.23
69208;SHT31;56321;47.662;8.878;2023-03-23T07:12:23;13.58;63.00
69208;SHT31;56321;47.662;8.878;2023-03-23T07:14:48;13.61;63.10
69208;SHT31;56321;47.662;8.878;2023-03-23T07:17:14;13.73;62.97
69208;SHT31;56321;47.662;8.878;2023-03-23T07:19:39;13.82;63.08
69208;SHT31;56321;47.662;8.878;2023-03-23T07:22:06;13.91;63.13
69208;SHT31;56321;47.662;8.878;2023-03-23T07:24:32;14.07;62.95
69208;SHT31;56321;47.662;8.878;2023-03-23T07:26:58;14.20;62.84
69208;SHT31;56321;47.662;8.878;2023-03-23T07:29:23;14.36;62.56
69208;SHT31;56321;47.662;8.878;2023-03-23T07:31:49;14.51;62.48
69208;SHT31;56321;47.662;8.878;2023-03-23T07:34:14;14.58;61.75
69208;SHT31;56321;47.662;8.878;2023-03-23T07:36:41;14.60;61.59
69208;SHT31;56321;47.662;8.878;2023-03-23T07:39:06;14.57;61.55
69208;SHT31;56321;47.662;8.878;2023-03-23T07:41:32;14.58;61.16
69208;SHT31;56321;47.662;8.878;2023-03-23T07:43:58;14.61;61.52
69208;SHT31;56321;47.662;8.878;2023-03-23T07:46:23;14.64;61.35
69208;SHT31;56321;47.662;8.878;2023-03-23T07:48:48;14.71;61.48
69208;SHT31;56321;47.662;8.878;2023-03-23T07:51:14;14.76;61.20
69208;SHT31;56321;47.662;8.878;2023-03-23T07:53:42;14.84;60.94
69208;SHT31;56321;47.662;8.878;2023-03-23T07:56:10;14.88;60.29
69208;SHT31;56321;47.662;8.878;2023-03-23T07:58:35;14.95;59.73
69208;SHT31;56321;47.662;8.878;2023-03-23T08:01:01;14.98;59.42
69208;SHT31;56321;47.662;8.878;2023-03-23T08:03:26;15.02;59.48
69208;SHT31;56321;47.662;8.878;2023-03-23T08:05:52;15.03;60.37
69208;SHT31;56321;47.662;8.878;2023-03-23T08:08:17;15.02;59.46
69208;SHT31;56321;47.662;8.878;2023-03-23T08:10:43;14.99;59.30
69208;SHT31;56321;47.662;8.878;2023-03-23T08:13:08;14.99;59.42
69208;SHT31;56321;47.662;8.878;2023-03-23T08:15:35;15.02;59.76
69208;SHT31;56321;47.662;8.878;2023-03-23T08:18:03;15.07;59.77
69208;SHT31;56321;47.662;8.878;2023-03-23T08:20:28;15.10;59.71
69208;SHT31;56321;47.662;8.878;2023-03-23T08:22:55;15.24;59.61
69208;SHT31;56321;47.662;8.878;2023-03-23T08:25:21;15.36;59.42
69208;SHT31;56321;47.662;8.878;2023-03-23T08:27:47;15.43;59.03
69208;SHT31;56321;47.662;8.878;2023-03-23T08:30:15;15.53;58.78
69208;SHT31;56321;47.662;8.878;2023-03-23T08:32:41;15.61;58.12
69208;SHT31;56321;47.662;8.878;2023-03-23T08:35:09;15.70;57.84
69208;SHT31;56321;47.662;8.878;2023-03-23T08:37:36;15.78;58.10
69208;SHT31;56321;47.662;8.878;2023-03-23T08:40:03;15.82;57.94
69208;SHT31;56321;47.662;8.878;2023-03-23T08:42:36;15.89;57.73
69208;SHT31;56321;47.662;8.878;2023-03-23T08:45:04;15.95;57.67
69208;SHT31;56321;47.662;8.878;2023-03-23T08:47:29;16.01;58.02
69208;SHT31;56321;47.662;8.878;2023-03-23T08:49:56;16.06;57.44
69208;SHT31;56321;47.662;8.878;2023-03-23T08:52:21;16.10;56.65
69208;SHT31;56321;47.662;8.878;2023-03-23T08:54:46;16.13;55.66
69208;SHT31;56321;47.662;8.878;2023-03-23T08:57:13;16.16;55.82
69208;SHT31;56321;47.662;8.878;2023-03-23T08:59:40;16.23;56.19
69208;SHT31;56321;47.662;8.878;2023-03-23T09:02:09;16.39;56.75
69208;SHT31;56321;47.662;8.878;2023-03-23T09:04:35;16.50;54.07
69208;SHT31;56321;47.662;8.878;2023-03-23T09:07:00;16.57;53.80
69208;SHT31;56321;47.662;8.878;2023-03-23T09:09:25;16.66;53.28
69208;SHT31;56321;47.662;8.878;2023-03-23T09:11:53;16.70;53.92
69208;SHT31;56321;47.662;8.878;2023-03-23T09:14:18;16.74;53.44
69208;SHT31;56321;47.662;8.878;2023-03-23T09:16:43;16.77;53.57
69208;SHT31;56321;47.662;8.878;2023-03-23T09:19:10;16.84;53.06
69208;SHT31;56321;47.662;8.878;2023-03-23T09:21:35;16.91;52.01
69208;SHT31;56321;47.662;8.878;2023-03-23T09:24:01;16.92;52.76
69208;SHT31;56321;47.662;8.878;2023-03-23T09:26:27;16.94;52.34
69208;SHT31;56321;47.662;8.878;2023-03-23T09:28:53;16.96;51.97
69208;SHT31;56321;47.662;8.878;2023-03-23T09:31:19;17.01;52.10
69208;SHT31;56321;47.662;8.878;2023-03-23T09:33:47;17.04;51.95
69208;SHT31;56321;47.662;8.878;2023-03-23T09:36:17;17.07;51.52
69208;SHT31;56321;47.662;8.878;2023-03-23T09:38:42;17.18;51.56
69208;SHT31;56321;47.662;8.878;2023-03-23T09:41:33;17.36;50.90
69208;SHT31;56321;47.662;8.878;2023-03-23T09:44:16;17.67;51.00
69208;SHT31;56321;47.662;8.878;2023-03-23T09:51:57;18.34;47.28
69208;SHT31;56321;47.662;8.878;2023-03-23T09:54:51;18.11;47.35
69208;SHT31;56321;47.662;8.878;2023-03-23T09:57:33;17.93;48.38
69208;SHT31;56321;47.662;8.878;2023-03-23T10:00:14;17.83;49.12
69208;SHT31;56321;47.662;8.878;2023-03-23T10:08:11;17.83;47.83
69208;SHT31;56321;47.662;8.878;2023-03-23T10:16:22;17.80;48.57
69208;SHT31;56321;47.662;8.878;2023-03-23T10:19:10;17.77;47.88
69208;SHT31;56321;47.662;8.878;2023-03-23T10:21:40;17.71;48.33
69208;SHT31;56321;47.662;8.878;2023-03-23T10:24:16;17.69;48.11
69208;SHT31;56321;47.662;8.878;2023-03-23T10:27:18;17.62;48.29
69208;SHT31;56321;47.662;8.878;2023-03-23T10:29:53;17.54;47.88
69208;SHT31;56321;47.662;8.878;2023-03-23T10:32:47;17.50;48.45
69208;SHT31;56321;47.662;8.878;2023-03-23T10:35:18;17.46;48.59
69208;SHT31;56321;47.662;8.878;2023-03-23T10:37:54;17.39;48.54
69208;SHT31;56321;47.662;8.878;2023-03-23T10:40:25;17.39;49.24
69208;SHT31;56321;47.662;8.878;2023-03-23T10:42:52;17.36;48.76
69208;SHT31;56321;47.662;8.878;2023-03-23T10:45:22;17.35;48.81
69208;SHT31;56321;47.662;8.878;2023-03-23T10:47:53;17.42;48.41
69208;SHT31;56321;47.662;8.878;2023-03-23T10:50:27;17.50;48.73
69208;SHT31;56321;47.662;8.878;2023-03-23T10:52:54;17.54;48.33
69208;SHT31;56321;47.662;8.878;2023-03-23T10:55:22;17.57;48.04
69208;SHT31;56321;47.662;8.878;2023-03-23T10:58:11;17.57;47.54
69208;SHT31;56321;47.662;8.878;2023-03-23T11:00:44;17.56;48.09
69208;SHT31;56321;47.662;8.878;2023-03-23T11:05:48;17.63;48.75
69208;SHT31;56321;47.662;8.878;2023-03-23T11:08:20;17.66;49.41
69208;SHT31;56321;47.662;8.878;2023-03-23T11:10:57;17.65;49.27
69208;SHT31;56321;47.662;8.878;2023-03-23T11:13:30;17.69;49.79
69208;SHT31;56321;47.662;8.878;2023-03-23T11:15:56;17.71;49.96
69208;SHT31;56321;47.662;8.878;2023-03-23T11:18:42;17.74;49.62
69208;SHT31;56321;47.662;8.878;2023-03-23T11:21:10;17.84;49.41
69208;SHT31;56321;47.662;8.878;2023-03-23T11:23:48;17.91;49.87
69208;SHT31;56321;47.662;8.878;2023-03-23T11:29:13;18.05;49.59
69208;SHT31;56321;47.662;8.878;2023-03-23T11:31:43;18.09;49.60
69208;SHT31;56321;47.662;8.878;2023-03-23T11:34:15;18.14;48.77
69208;SHT31;56321;47.662;8.878;2023-03-23T11:36:47;18.21;48.18
69208;SHT31;56321;47.662;8.878;2023-03-23T11:41:58;18.24;48.00
69208;SHT31;56321;47.662;8.878;2023-03-23T11:44:24;18.25;47.79
69208;SHT31;56321;47.662;8.878;2023-03-23T11:47:36;18.25;48.08
69208;SHT31;56321;47.662;8.878;2023-03-23T11:50:20;18.25;46.81
69208;SHT31;56321;47.662;8.878;2023-03-23T11:58:17;18.34;47.22
69208;SHT31;56321;47.662;8.878;2023-03-23T12:03:51;19.00;47.33
69208;SHT31;56321;47.662;8.878;2023-03-23T12:09:35;19.39;44.06
69208;SHT31;56321;47.662;8.878;2023-03-23T12:14:49;19.24;45.50
69208;SHT31;56321;47.662;8.878;2023-03-23T12:22:24;19.14;45.89
69208;SHT31;56321;47.662;8.878;2023-03-23T12:27:48;19.04;45.31
69208;SHT31;56321;47.662;8.878;2023-03-23T12:33:33;18.92;46.39
69208;SHT31;56321;47.662;8.878;2023-03-23T12:44:22;18.77;47.73
69208;SHT31;56321;47.662;8.878;2023-03-23T12:47:05;18.79;47.41
69208;SHT31;56321;47.662;8.878;2023-03-23T12:49:41;18.86;47.65
69208;SHT31;56321;47.662;8.878;2023-03-23T12:52:28;18.90;47.33
69208;SHT31;56321;47.662;8.878;2023-03-23T12:57:45;18.96;47.41
69208;SHT31;56321;47.662;8.878;2023-03-23T13:08:13;18.80;45.99
69208;SHT31;56321;47.662;8.878;2023-03-23T13:10:45;18.77;46.70
69208;SHT31;56321;47.662;8.878;2023-03-23T13:16:22;18.59;47.45
69208;SHT31;56321;47.662;8.878;2023-03-23T13:19:12;18.55;47.17
69208;SHT31;56321;47.662;8.878;2023-03-23T13:21:46;18.46;47.20
69208;SHT31;56321;47.662;8.878;2023-03-23T13:24:18;18.41;48.04
69208;SHT31;56321;47.662;8.878;2023-03-23T13:26:44;18.34;48.25
69208;SHT31;56321;47.662;8.878;2023-03-23T13:31:42;18.25;48.64
69208;SHT31;56321;47.662;8.878;2023-03-23T13:34:24;18.18;48.90
69208;SHT31;56321;47.662;8.878;2023-03-23T13:36:59;18.14;48.18
69208;SHT31;56321;47.662;8.878;2023-03-23T13:39:29;18.12;47.67
69208;SHT31;56321;47.662;8.878;2023-03-23T13:42:28;18.05;46.92
69208;SHT31;56321;47.662;8.878;2023-03-23T13:45:21;17.98;46.65
69208;SHT31;56321;47.662;8.878;2023-03-23T13:47:47;18.02;47.96
69208;SHT31;56321;47.662;8.878;2023-03-23T13:55:37;18.07;47.99
69208;SHT31;56321;47.662;8.878;2023-03-23T14:03:19;18.04;47.02
69208;SHT31;56321;47.662;8.878;2023-03-23T14:05:59;18.04;47.09
69208;SHT31;56321;47.662;8.878;2023-03-23T14:11:17;17.96;47.01
69208;SHT31;56321;47.662;8.878;2023-03-23T14:13:45;17.90;47.77
69208;SHT31;56321;47.662;8.878;2023-03-23T14:16:26;17.87;48.28
69208;SHT31;56321;47.662;8.878;2023-03-23T14:18:54;17.81;47.78
69208;SHT31;56321;47.662;8.878;2023-03-23T14:21:57;17.73;46.78
69208;SHT31;56321;47.662;8.878;2023-03-23T14:26:51;17.70;47.56
69208;SHT31;56321;47.662;8.878;2023-03-23T14:29:18;17.70;47.38
69208;SHT31;56321;47.662;8.878;2023-03-23T14:31:44;17.69;47.64
69208;SHT31;56321;47.662;8.878;2023-03-23T14:34:18;17.69;47.26
69208;SHT31;56321;47.662;8.878;2023-03-23T14:36:45;17.73;47.22
69208;SHT31;56321;47.662;8.878;2023-03-23T14:39:28;17.74;47.55
69208;SHT31;56321;47.662;8.878;2023-03-23T14:41:55;17.83;47.94
69208;SHT31;56321;47.662;8.878;2023-03-23T14:44:24;17.83;47.68
69208;SHT31;56321;47.662;8.878;2023-03-23T14:46:50;17.87;47.53
69208;SHT31;56321;47.662;8.878;2023-03-23T14:49:21;17.86;47.43
69208;SHT31;56321;47.662;8.878;2023-03-23T14:51:50;17.84;47.10
69208;SHT31;56321;47.662;8.878;2023-03-23T14:54:21;17.83;46.90
69208;SHT31;56321;47.662;8.878;2023-03-23T14:56:47;17.81;47.17
69208;SHT31;56321;47.662;8.878;2023-03-23T14:59:12;17.86;47.11
69208;SHT31;56321;47.662;8.878;2023-03-23T15:01:39;17.84;46.60
69208;SHT31;56321;47.662;8.878;2023-03-23T15:04:09;17.84;46.54
69208;SHT31;56321;47.662;8.878;2023-03-23T15:06:37;17.87;46.88
69208;SHT31;56321;47.662;8.878;2023-03-23T15:09:11;17.88;46.56
69208;SHT31;56321;47.662;8.878;2023-03-23T15:11:38;17.88;46.52
69208;SHT31;56321;47.662;8.878;2023-03-23T15:14:17;17.86;46.13
69208;SHT31;56321;47.662;8.878;2023-03-23T15:16:47;17.88;47.23
69208;SHT31;56321;47.662;8.878;2023-03-23T15:19:19;17.91;46.35
69208;SHT31;56321;47.662;8.878;2023-03-23T15:21:52;17.88;46.23
69208;SHT31;56321;47.662;8.878;2023-03-23T15:24:39;17.90;45.76
69208;SHT31;56321;47.662;8.878;2023-03-23T15:27:24;17.94;46.12
69208;SHT31;56321;47.662;8.878;2023-03-23T15:32:49;17.91;45.24
69208;SHT31;56321;47.662;8.878;2023-03-23T15:35:21;17.88;45.03
69208;SHT31;56321;47.662;8.878;2023-03-23T15:38:26;17.84;44.95
69208;SHT31;56321;47.662;8.878;2023-03-23T15:40:56;17.84;45.20
69208;SHT31;56321;47.662;8.878;2023-03-23T15:43:26;17.86;45.44
69208;SHT31;56321;47.662;8.878;2023-03-23T15:48:25;17.86;45.54
69208;SHT31;56321;47.662;8.878;2023-03-23T15:50:51;17.84;45.65
69208;SHT31;56321;47.662;8.878;2023-03-23T15:53:34;17.80;45.40
69208;SHT31;56321;47.662;8.878;2023-03-23T15:56:03;17.80;46.09
69208;SHT31;56321;47.662;8.878;2023-03-23T15:58:30;17.76;45.41
69208;SHT31;56321;47.662;8.878;2023-03-23T16:00:57;17.77;45.59
69208;SHT31;56321;47.662;8.878;2023-03-23T16:03:27;17.77;45.44
69208;SHT31;56321;47.662;8.878;2023-03-23T16:05:55;17.74;45.44
69208;SHT31;56321;47.662;8.878;2023-03-23T16:08:22;17.73;45.43
69208;SHT31;56321;47.662;8.878;2023-03-23T16:10:48;17.77;45.66
69208;SHT31;56321;47.662;8.878;2023-03-23T16:13:13;17.76;45.80
69208;SHT31;56321;47.662;8.878;2023-03-23T16:15:39;17.76;45.85
69208;SHT31;56321;47.662;8.878;2023-03-23T16:18:04;17.74;45.71
69208;SHT31;56321;47.662;8.878;2023-03-23T16:20:30;17.74;46.06
69208;SHT31;56321;47.662;8.878;2023-03-23T16:22:57;17.76;46.80
69208;SHT31;56321;47.662;8.878;2023-03-23T16:25:22;17.74;46.42
69208;SHT31;56321;47.662;8.878;2023-03-23T16:27:48;17.74;46.43
69208;SHT31;56321;47.662;8.878;2023-03-23T16:30:27;17.73;46.75
69208;SHT31;56321;47.662;8.878;2023-03-23T16:32:53;17.74;46.73
69208;SHT31;56321;47.662;8.878;2023-03-23T16:35:19;17.70;46.90
69208;SHT31;56321;47.662;8.878;2023-03-23T16:37:46;17.73;46.71
69208;SHT31;56321;47.662;8.878;2023-03-23T16:40:13;17.71;46.60
69208;SHT31;56321;47.662;8.878;2023-03-23T16:42:38;17.66;46.51
69208;SHT31;56321;47.662;8.878;2023-03-23T16:45:04;17.65;46.37
69208;SHT31;56321;47.662;8.878;2023-03-23T16:47:30;17.62;46.58
69208;SHT31;56321;47.662;8.878;2023-03-23T16:49:56;17.59;46.24
69208;SHT31;56321;47.662;8.878;2023-03-23T16:52:21;17.59;46.36
69208;SHT31;56321;47.662;8.878;2023-03-23T16:54:47;17.53;46.42
69208;SHT31;56321;47.662;8.878;2023-03-23T16:57:12;17.53;46.27
69208;SHT31;56321;47.662;8.878;2023-03-23T16:59:37;17.49;46.17
69208;SHT31;56321;47.662;8.878;2023-03-23T17:02:03;17.46;46.20
69208;SHT31;56321;47.662;8.878;2023-03-23T17:04:30;17.42;46.27
69208;SHT31;56321;47.662;8.878;2023-03-23T17:06:56;17.40;46.30
69208;SHT31;56321;47.662;8.878;2023-03-23T17:09:24;17.40;46.38
69208;SHT31;56321;47.662;8.878;2023-03-23T17:11:49;17.40;46.43
69208;SHT31;56321;47.662;8.878;2023-03-23T17:14:15;17.38;46.42
69208;SHT31;56321;47.662;8.878;2023-03-23T17:16:40;17.36;46.52
69208;SHT31;56321;47.662;8.878;2023-03-23T17:19:06;17.39;46.56
69208;SHT31;56321;47.662;8.878;2023-03-23T17:21:31;17.38;46.53
69208;SHT31;56321;47.662;8.878;2023-03-23T17:23:57;17.35;46.66
69208;SHT31;56321;47.662;8.878;2023-03-23T17:26:22;17.36;46.73
69208;SHT31;56321;47.662;8.878;2023-03-23T17:28:47;17.33;46.85
69208;SHT31;56321;47.662;8.878;2023-03-23T17:31:12;17.35;47.56
69208;SHT31;56321;47.662;8.878;2023-03-23T17:33:38;17.36;47.40
69208;SHT31;56321;47.662;8.878;2023-03-23T17:36:03;17.33;47.23
69208;SHT31;56321;47.662;8.878;2023-03-23T17:38:28;17.31;47.12
69208;SHT31;56321;47.662;8.878;2023-03-23T17:40:56;17.28;46.91
69208;SHT31;56321;47.662;8.878;2023-03-23T17:43:22;17.28;47.06